DEMXB EDWR-EDGS
Flight info
| Callsign | DEMXB |
|---|---|
| Flight time | N/A |
| Altitude | 5000 |
| Route | 5333N00629E DCT EEL DCT EDWN DCT EDDG DCT DOR DCT COL |
| Aircraft | PA24/L-SFGRY/S |
Departure
| Time | 2026-04-25 14:53 |
|---|---|
| Airport | Borkum Airport (EDWR) |
Arrival
| Time | N/A |
|---|---|
| Airport | Siegerland Airport (EDGS) |
| Time | Latitude | Longitude | Altitude | Speed | Heading |
|---|---|---|---|---|---|
| 2026-04-25 14:38 | 53.59802 | 6.70296 | 4 ft | 0 kts | 337° |
| 2026-04-25 14:40 | 53.59805 | 6.70289 | 7 ft | 1 kts | 269° |
| 2026-04-25 14:40 | 53.59799 | 6.70282 | 10 ft | 1 kts | 174° |
| 2026-04-25 14:41 | 53.59789 | 6.70309 | 7 ft | 4 kts | 87° |
| 2026-04-25 14:41 | 53.59777 | 6.70356 | 7 ft | 5 kts | 141° |
| 2026-04-25 14:41 | 53.59767 | 6.70369 | 7 ft | 3 kts | 142° |
| 2026-04-25 14:41 | 53.59729 | 6.70423 | 7 ft | 5 kts | 122° |
| 2026-04-25 14:42 | 53.59736 | 6.70509 | 7 ft | 9 kts | 68° |
| 2026-04-25 14:42 | 53.59751 | 6.70573 | 7 ft | 8 kts | 69° |
| 2026-04-25 14:42 | 53.59759 | 6.70689 | 7 ft | 7 kts | 108° |
| 2026-04-25 14:42 | 53.59728 | 6.70760 | 7 ft | 8 kts | 129° |
| 2026-04-25 14:43 | 53.59695 | 6.70827 | 9 ft | 6 kts | 130° |
| 2026-04-25 14:43 | 53.59656 | 6.70904 | 7 ft | 12 kts | 130° |
| 2026-04-25 14:43 | 53.59596 | 6.71025 | 7 ft | 13 kts | 129° |
| 2026-04-25 14:43 | 53.59546 | 6.71127 | 7 ft | 9 kts | 130° |
| 2026-04-25 14:44 | 53.59508 | 6.71202 | 6 ft | 9 kts | 129° |
| 2026-04-25 14:44 | 53.59448 | 6.71323 | 6 ft | 16 kts | 130° |
| 2026-04-25 14:44 | 53.59375 | 6.71470 | 6 ft | 15 kts | 130° |
| 2026-04-25 14:44 | 53.59312 | 6.71598 | 6 ft | 14 kts | 129° |
| 2026-04-25 14:45 | 53.59252 | 6.71718 | 6 ft | 13 kts | 130° |
| 2026-04-25 14:45 | 53.59196 | 6.71830 | 5 ft | 13 kts | 130° |
| 2026-04-25 14:45 | 53.59137 | 6.71948 | 5 ft | 15 kts | 130° |
| 2026-04-25 14:45 | 53.59080 | 6.72061 | 5 ft | 7 kts | 128° |
| 2026-04-25 14:46 | 53.59081 | 6.72103 | 6 ft | 1 kts | 38° |
| 2026-04-25 14:46 | 53.59083 | 6.72104 | 6 ft | 0 kts | 2° |
| 2026-04-25 14:51 | 53.59084 | 6.72104 | 6 ft | 1 kts | 14° |
| 2026-04-25 14:51 | 53.59108 | 6.72140 | 4 ft | 7 kts | 41° |
| 2026-04-25 14:51 | 53.59140 | 6.72159 | 3 ft | 3 kts | 329° |
| 2026-04-25 14:51 | 53.59162 | 6.72118 | 4 ft | 21 kts | 309° |
| 2026-04-25 14:52 | 53.59381 | 6.71682 | 38 ft | 64 kts | 309° |
| 2026-04-25 14:52 | 53.59674 | 6.71105 | 186 ft | 70 kts | 307° |
| 2026-04-25 14:52 | 53.60014 | 6.70440 | 433 ft | 78 kts | 310° |
| 2026-04-25 14:52 | 53.60258 | 6.69995 | 603 ft | 77 kts | 314° |
| 2026-04-25 14:53 | 53.60744 | 6.69137 | 1000 ft | 77 kts | 313° |
| 2026-04-25 14:53 | 53.61112 | 6.68480 | 1252 ft | 78 kts | 312° |
| 2026-04-25 14:53 | 53.61473 | 6.67771 | 1426 ft | 83 kts | 305° |
| 2026-04-25 14:53 | 53.61610 | 6.66861 | 1623 ft | 85 kts | 262° |
| 2026-04-25 14:54 | 53.61224 | 6.66029 | 1818 ft | 96 kts | 232° |
| 2026-04-25 14:54 | 53.60726 | 6.65279 | 2025 ft | 98 kts | 230° |
| 2026-04-25 14:54 | 53.60190 | 6.64555 | 2247 ft | 99 kts | 238° |
| 2026-04-25 14:54 | 53.59760 | 6.63657 | 2457 ft | 99 kts | 243° |
| 2026-04-25 14:55 | 53.59300 | 6.62707 | 2479 ft | 114 kts | 240° |
| 2026-04-25 14:55 | 53.58767 | 6.61670 | 2535 ft | 121 kts | 243° |
| 2026-04-25 14:55 | 53.58263 | 6.60474 | 2529 ft | 129 kts | 245° |
| 2026-04-25 14:55 | 53.57779 | 6.59173 | 2498 ft | 136 kts | 248° |
| 2026-04-25 14:56 | 53.57281 | 6.57774 | 2405 ft | 142 kts | 251° |
| 2026-04-25 14:56 | 53.56873 | 6.56281 | 2372 ft | 141 kts | 255° |
| 2026-04-25 14:56 | 53.56483 | 6.54717 | 2248 ft | 145 kts | 256° |
| 2026-04-25 14:56 | 53.56163 | 6.53149 | 2236 ft | 139 kts | 260° |
| 2026-04-25 14:57 | 53.55873 | 6.51555 | 2087 ft | 146 kts | 258° |
| 2026-04-25 14:57 | 53.55563 | 6.49943 | 2054 ft | 142 kts | 256° |
| 2026-04-25 14:57 | 53.55144 | 6.48443 | 1999 ft | 144 kts | 237° |
| 2026-04-25 14:57 | 53.54301 | 6.47490 | 1903 ft | 154 kts | 206° |
| 2026-04-25 14:58 | 53.53239 | 6.47528 | 1922 ft | 158 kts | 166° |
| 2026-04-25 14:58 | 53.52200 | 6.48241 | 1933 ft | 161 kts | 161° |
| 2026-04-25 14:58 | 53.51150 | 6.48857 | 1969 ft | 159 kts | 169° |
| 2026-04-25 14:58 | 53.50075 | 6.49370 | 1877 ft | 165 kts | 167° |
| 2026-04-25 14:59 | 53.48984 | 6.49972 | 1846 ft | 165 kts | 166° |
| 2026-04-25 14:59 | 53.47887 | 6.50564 | 1795 ft | 165 kts | 167° |
| 2026-04-25 14:59 | 53.46789 | 6.51109 | 1748 ft | 165 kts | 169° |
| 2026-04-25 14:59 | 53.45671 | 6.51572 | 1664 ft | 168 kts | 171° |
| 2026-04-25 15:00 | 53.44517 | 6.51966 | 1616 ft | 169 kts | 175° |
| 2026-04-25 15:00 | 53.43383 | 6.52369 | 1586 ft | 166 kts | 171° |
| 2026-04-25 15:00 | 53.42291 | 6.52906 | 1601 ft | 161 kts | 165° |
| 2026-04-25 15:00 | 53.41235 | 6.53497 | 1586 ft | 159 kts | 166° |
| 2026-04-25 15:01 | 53.40175 | 6.54066 | 1617 ft | 161 kts | 167° |
| 2026-04-25 15:01 | 53.39112 | 6.54734 | 1595 ft | 164 kts | 163° |
| 2026-04-25 15:01 | 53.38047 | 6.55448 | 1613 ft | 165 kts | 164° |
| 2026-04-25 15:01 | 53.36967 | 6.56107 | 1612 ft | 165 kts | 166° |
| 2026-04-25 15:02 | 53.35880 | 6.56661 | 1582 ft | 162 kts | 169° |
| 2026-04-25 15:02 | 53.34810 | 6.57149 | 1554 ft | 159 kts | 169° |
| 2026-04-25 15:02 | 53.33732 | 6.57612 | 1549 ft | 160 kts | 171° |
| 2026-04-25 15:02 | 53.32645 | 6.57994 | 1573 ft | 159 kts | 177° |
| 2026-04-25 15:03 | 53.31545 | 6.58126 | 1569 ft | 158 kts | 183° |
| 2026-04-25 15:03 | 53.30451 | 6.58217 | 1589 ft | 157 kts | 184° |
| 2026-04-25 15:03 | 53.29359 | 6.58326 | 1549 ft | 158 kts | 181° |
| 2026-04-25 15:03 | 53.28280 | 6.58508 | 1540 ft | 158 kts | 179° |
| 2026-04-25 15:04 | 53.27188 | 6.58712 | 1531 ft | 158 kts | 179° |
| 2026-04-25 15:04 | 53.26112 | 6.59007 | 1558 ft | 155 kts | 166° |
| 2026-04-25 15:04 | 53.25206 | 6.60037 | 1509 ft | 162 kts | 131° |
| 2026-04-25 15:04 | 53.24685 | 6.61654 | 1602 ft | 155 kts | 111° |
| 2026-04-25 15:05 | 53.24308 | 6.63373 | 1572 ft | 162 kts | 107° |
| 2026-04-25 15:05 | 53.23902 | 6.65123 | 1621 ft | 159 kts | 117° |
| 2026-04-25 15:05 | 53.23088 | 6.66252 | 1723 ft | 157 kts | 164° |
| 2026-04-25 15:06 | 53.20952 | 6.66763 | 1750 ft | 155 kts | 182° |
| 2026-04-25 15:06 | 53.19897 | 6.66807 | 1871 ft | 150 kts | 188° |
| 2026-04-25 15:06 | 53.18851 | 6.66724 | 1892 ft | 151 kts | 192° |
| 2026-04-25 15:06 | 53.17804 | 6.66673 | 1937 ft | 151 kts | 187° |
| 2026-04-25 15:07 | 53.16731 | 6.66664 | 1909 ft | 155 kts | 186° |
| 2026-04-25 15:07 | 53.15685 | 6.67045 | 1928 ft | 157 kts | 162° |
| 2026-04-25 15:07 | 53.14679 | 6.67871 | 1954 ft | 163 kts | 156° |
| 2026-04-25 15:07 | 53.13657 | 6.68667 | 1998 ft | 163 kts | 161° |
| 2026-04-25 15:08 | 53.12613 | 6.69389 | 1994 ft | 164 kts | 163° |
| 2026-04-25 15:08 | 53.11564 | 6.70098 | 2032 ft | 159 kts | 159° |
| 2026-04-25 15:08 | 53.10564 | 6.70915 | 2017 ft | 161 kts | 159° |
| 2026-04-25 15:08 | 53.09525 | 6.71698 | 2015 ft | 165 kts | 160° |
| 2026-04-25 15:09 | 53.08489 | 6.72421 | 2035 ft | 162 kts | 161° |
| 2026-04-25 15:09 | 53.07439 | 6.73127 | 2028 ft | 163 kts | 163° |
| 2026-04-25 15:09 | 53.05411 | 6.74620 | 2193 ft | 151 kts | 159° |
| 2026-04-25 15:10 | 53.04489 | 6.75303 | 2433 ft | 140 kts | 161° |
| 2026-04-25 15:10 | 53.03618 | 6.75983 | 2635 ft | 136 kts | 160° |
| 2026-04-25 15:10 | 53.01917 | 6.77297 | 2975 ft | 134 kts | 162° |
| 2026-04-25 15:11 | 53.01060 | 6.77886 | 3150 ft | 135 kts | 165° |
| 2026-04-25 15:11 | 53.00177 | 6.78447 | 3309 ft | 136 kts | 166° |
| 2026-04-25 15:11 | 52.99280 | 6.78988 | 3442 ft | 139 kts | 163° |
| 2026-04-25 15:12 | 52.97503 | 6.80708 | 3486 ft | 155 kts | 152° |
| 2026-04-25 15:12 | 52.96559 | 6.81597 | 3488 ft | 158 kts | 159° |
| 2026-04-25 15:12 | 52.95554 | 6.82302 | 3531 ft | 155 kts | 162° |
| 2026-04-25 15:12 | 52.95229 | 6.82522 | 3537 ft | 156 kts | 163° |
| 2026-04-25 15:13 | 52.93859 | 6.83471 | 3503 ft | 160 kts | 163° |
| 2026-04-25 15:13 | 52.91741 | 6.84847 | 3557 ft | 163 kts | 162° |
| 2026-04-25 15:13 | 52.90696 | 6.85542 | 3611 ft | 162 kts | 162° |
| 2026-04-25 15:14 | 52.89635 | 6.86221 | 3625 ft | 164 kts | 164° |
| 2026-04-25 15:14 | 52.88551 | 6.86870 | 3637 ft | 166 kts | 165° |
| 2026-04-25 15:14 | 52.87481 | 6.87557 | 3705 ft | 165 kts | 160° |
| 2026-04-25 15:14 | 52.86428 | 6.88338 | 3725 ft | 167 kts | 160° |
| 2026-04-25 15:15 | 52.85367 | 6.89110 | 3749 ft | 167 kts | 159° |
| 2026-04-25 15:15 | 52.84307 | 6.89877 | 3784 ft | 166 kts | 160° |
| 2026-04-25 15:15 | 52.83249 | 6.90663 | 3821 ft | 167 kts | 160° |
| 2026-04-25 15:15 | 52.82188 | 6.91451 | 3862 ft | 167 kts | 160° |
| 2026-04-25 15:16 | 52.81120 | 6.92213 | 3889 ft | 168 kts | 162° |
| 2026-04-25 15:16 | 52.80032 | 6.92891 | 3913 ft | 166 kts | 164° |
| 2026-04-25 15:16 | 52.77877 | 6.94265 | 3958 ft | 167 kts | 159° |
| 2026-04-25 15:17 | 52.75749 | 6.95819 | 4038 ft | 168 kts | 158° |
| 2026-04-25 15:17 | 52.74683 | 6.96589 | 4074 ft | 167 kts | 159° |
| 2026-04-25 15:17 | 52.73629 | 6.97416 | 4119 ft | 168 kts | 155° |
| 2026-04-25 15:18 | 52.72586 | 6.98291 | 4146 ft | 168 kts | 156° |
| 2026-04-25 15:18 | 52.70426 | 6.99964 | 4021 ft | 176 kts | 156° |
| 2026-04-25 15:18 | 52.69329 | 7.00801 | 4076 ft | 171 kts | 158° |
| 2026-04-25 15:19 | 52.68254 | 7.01635 | 4077 ft | 172 kts | 157° |
| 2026-04-25 15:19 | 52.67525 | 7.02198 | 4010 ft | 176 kts | 158° |
| 2026-04-25 15:19 | 52.66031 | 7.03236 | 4035 ft | 171 kts | 162° |
| 2026-04-25 15:19 | 52.64941 | 7.03964 | 4014 ft | 172 kts | 161° |
| 2026-04-25 15:20 | 52.63830 | 7.04721 | 3983 ft | 173 kts | 161° |
| 2026-04-25 15:20 | 52.62719 | 7.05443 | 3989 ft | 171 kts | 163° |
| 2026-04-25 15:20 | 52.61598 | 7.06122 | 3961 ft | 172 kts | 163° |
| 2026-04-25 15:20 | 52.60495 | 7.06886 | 3963 ft | 172 kts | 159° |
| 2026-04-25 15:21 | 52.59416 | 7.07728 | 3956 ft | 172 kts | 158° |
| 2026-04-25 15:21 | 52.58329 | 7.08573 | 3928 ft | 173 kts | 158° |
| 2026-04-25 15:21 | 52.57225 | 7.09353 | 3929 ft | 173 kts | 161° |
| 2026-04-25 15:21 | 52.56110 | 7.10087 | 3927 ft | 173 kts | 162° |
| 2026-04-25 15:22 | 52.55004 | 7.10878 | 3917 ft | 172 kts | 160° |
| 2026-04-25 15:22 | 52.53907 | 7.11662 | 3877 ft | 173 kts | 160° |
| 2026-04-25 15:22 | 52.52768 | 7.12338 | 3806 ft | 173 kts | 165° |
| 2026-04-25 15:22 | 52.51643 | 7.12963 | 3825 ft | 170 kts | 164° |
| 2026-04-25 15:23 | 52.50521 | 7.13620 | 3762 ft | 173 kts | 162° |
| 2026-04-25 15:23 | 52.49409 | 7.14347 | 3746 ft | 171 kts | 159° |
| 2026-04-25 15:23 | 52.48323 | 7.15141 | 3735 ft | 170 kts | 159° |
| 2026-04-25 15:23 | 52.47225 | 7.15899 | 3692 ft | 172 kts | 159° |
| 2026-04-25 15:24 | 52.46147 | 7.16713 | 3671 ft | 170 kts | 153° |
| 2026-04-25 15:24 | 52.45253 | 7.17971 | 3667 ft | 170 kts | 135° |
| 2026-04-25 15:24 | 52.44400 | 7.19340 | 3666 ft | 170 kts | 137° |
| 2026-04-25 15:24 | 52.43832 | 7.20205 | 3689 ft | 167 kts | 137° |
| 2026-04-25 15:25 | 52.42688 | 7.21968 | 3682 ft | 171 kts | 136° |
| 2026-04-25 15:25 | 52.41847 | 7.23340 | 3702 ft | 169 kts | 135° |
| 2026-04-25 15:25 | 52.41041 | 7.24736 | 3700 ft | 169 kts | 131° |
| 2026-04-25 15:25 | 52.40285 | 7.26232 | 3685 ft | 171 kts | 131° |
| 2026-04-25 15:26 | 52.39444 | 7.27596 | 3700 ft | 169 kts | 137° |
| 2026-04-25 15:26 | 52.38575 | 7.28896 | 3673 ft | 170 kts | 138° |
| 2026-04-25 15:26 | 52.37701 | 7.30151 | 3657 ft | 169 kts | 140° |
| 2026-04-25 15:26 | 52.36823 | 7.31440 | 3658 ft | 170 kts | 137° |
| 2026-04-25 15:27 | 52.35976 | 7.32789 | 3651 ft | 170 kts | 135° |
| 2026-04-25 15:27 | 52.35120 | 7.34115 | 3648 ft | 170 kts | 139° |
| 2026-04-25 15:27 | 52.33440 | 7.36836 | 3630 ft | 169 kts | 135° |
| 2026-04-25 15:28 | 52.32597 | 7.38178 | 3617 ft | 170 kts | 136° |
| 2026-04-25 15:28 | 52.31734 | 7.39511 | 3607 ft | 171 kts | 137° |
| 2026-04-25 15:28 | 52.30890 | 7.40882 | 3607 ft | 171 kts | 134° |
| 2026-04-25 15:28 | 52.30055 | 7.42266 | 3600 ft | 171 kts | 134° |
| 2026-04-25 15:29 | 52.29207 | 7.43639 | 3597 ft | 172 kts | 137° |
| 2026-04-25 15:29 | 52.28367 | 7.45006 | 3589 ft | 170 kts | 134° |
| 2026-04-25 15:29 | 52.27584 | 7.46454 | 3586 ft | 170 kts | 129° |
| 2026-04-25 15:29 | 52.26826 | 7.47932 | 3595 ft | 169 kts | 132° |
| 2026-04-25 15:30 | 52.26035 | 7.49352 | 3600 ft | 169 kts | 135° |
| 2026-04-25 15:30 | 52.25213 | 7.50728 | 3601 ft | 169 kts | 133° |
| 2026-04-25 15:30 | 52.24420 | 7.52145 | 3615 ft | 169 kts | 134° |
| 2026-04-25 15:30 | 52.23581 | 7.53498 | 3624 ft | 170 kts | 140° |
| 2026-04-25 15:31 | 52.22674 | 7.54727 | 3619 ft | 169 kts | 142° |
| 2026-04-25 15:31 | 52.21764 | 7.55936 | 3625 ft | 169 kts | 142° |
| 2026-04-25 15:31 | 52.20868 | 7.57175 | 3626 ft | 169 kts | 141° |
| 2026-04-25 15:31 | 52.19965 | 7.58400 | 3634 ft | 169 kts | 142° |
| 2026-04-25 15:32 | 52.19062 | 7.59627 | 3640 ft | 169 kts | 141° |
| 2026-04-25 15:32 | 52.18205 | 7.60910 | 3642 ft | 170 kts | 138° |
| 2026-04-25 15:32 | 52.17339 | 7.62254 | 3650 ft | 170 kts | 138° |
| 2026-04-25 15:33 | 52.15643 | 7.64910 | 3645 ft | 170 kts | 139° |
| 2026-04-25 15:33 | 52.14750 | 7.66208 | 3644 ft | 170 kts | 140° |
| 2026-04-25 15:33 | 52.13869 | 7.67479 | 3647 ft | 169 kts | 140° |
| 2026-04-25 15:33 | 52.12890 | 7.68527 | 3649 ft | 169 kts | 163° |
| 2026-04-25 15:34 | 52.11745 | 7.68752 | 3644 ft | 166 kts | 185° |
| 2026-04-25 15:34 | 52.10620 | 7.68589 | 3684 ft | 159 kts | 193° |
| 2026-04-25 15:34 | 52.09539 | 7.68376 | 3673 ft | 159 kts | 193° |
| 2026-04-25 15:34 | 52.08791 | 7.68236 | 3646 ft | 161 kts | 193° |
| 2026-04-25 15:35 | 52.06209 | 7.67929 | 3631 ft | 161 kts | 189° |
| 2026-04-25 15:35 | 52.05092 | 7.67808 | 3636 ft | 161 kts | 188° |
| 2026-04-25 15:35 | 52.03972 | 7.67789 | 3631 ft | 162 kts | 185° |
| 2026-04-25 15:36 | 52.01730 | 7.68186 | 3587 ft | 164 kts | 172° |
| 2026-04-25 15:36 | 52.00603 | 7.68376 | 3585 ft | 163 kts | 185° |
| 2026-04-25 15:36 | 51.99475 | 7.68407 | 3610 ft | 161 kts | 182° |
| 2026-04-25 15:37 | 51.98358 | 7.68420 | 3594 ft | 161 kts | 190° |
| 2026-04-25 15:37 | 51.97243 | 7.68211 | 3577 ft | 160 kts | 192° |
| 2026-04-25 15:37 | 51.96138 | 7.67979 | 3557 ft | 160 kts | 192° |
| 2026-04-25 15:37 | 51.95028 | 7.67814 | 3542 ft | 160 kts | 191° |
| 2026-04-25 15:38 | 51.93922 | 7.67636 | 3537 ft | 160 kts | 190° |
| 2026-04-25 15:38 | 51.92816 | 7.67500 | 3536 ft | 159 kts | 189° |
| 2026-04-25 15:38 | 51.91719 | 7.67389 | 3547 ft | 158 kts | 189° |
| 2026-04-25 15:38 | 51.90610 | 7.67318 | 3530 ft | 161 kts | 186° |
| 2026-04-25 15:39 | 51.89498 | 7.67369 | 3540 ft | 159 kts | 184° |
| 2026-04-25 15:39 | 51.88394 | 7.67429 | 3528 ft | 160 kts | 186° |
| 2026-04-25 15:39 | 51.87283 | 7.67335 | 3512 ft | 159 kts | 189° |
| 2026-04-25 15:39 | 51.86186 | 7.67199 | 3567 ft | 158 kts | 194° |
| 2026-04-25 15:40 | 51.85094 | 7.67019 | 3532 ft | 157 kts | 192° |
| 2026-04-25 15:40 | 51.84742 | 7.66970 | 3512 ft | 156 kts | 192° |
| 2026-04-25 15:40 | 51.82918 | 7.66679 | 3304 ft | 158 kts | 192° |
| 2026-04-25 15:40 | 51.81813 | 7.66534 | 3204 ft | 158 kts | 187° |
| 2026-04-25 15:41 | 51.80711 | 7.66493 | 3101 ft | 157 kts | 186° |
| 2026-04-25 15:41 | 51.79645 | 7.66463 | 3042 ft | 155 kts | 187° |
| 2026-04-25 15:41 | 51.78565 | 7.66429 | 2907 ft | 155 kts | 185° |
| 2026-04-25 15:41 | 51.77498 | 7.66392 | 2836 ft | 152 kts | 188° |
| 2026-04-25 15:42 | 51.76444 | 7.66340 | 2763 ft | 152 kts | 186° |
| 2026-04-25 15:42 | 51.75376 | 7.66315 | 2695 ft | 155 kts | 187° |
| 2026-04-25 15:42 | 51.74310 | 7.66144 | 2617 ft | 154 kts | 193° |
| 2026-04-25 15:42 | 51.73265 | 7.65863 | 2525 ft | 150 kts | 194° |
| 2026-04-25 15:43 | 51.72242 | 7.65588 | 2433 ft | 149 kts | 191° |
| 2026-04-25 15:43 | 51.71202 | 7.65472 | 2346 ft | 150 kts | 188° |
| 2026-04-25 15:43 | 51.70152 | 7.65386 | 2273 ft | 151 kts | 187° |
| 2026-04-25 15:43 | 51.69122 | 7.65177 | 2210 ft | 148 kts | 197° |
| 2026-04-25 15:44 | 51.68114 | 7.64877 | 2194 ft | 148 kts | 196° |
| 2026-04-25 15:44 | 51.67090 | 7.64573 | 2148 ft | 150 kts | 196° |
| 2026-04-25 15:44 | 51.66084 | 7.64264 | 2148 ft | 144 kts | 198° |
| 2026-04-25 15:44 | 51.65133 | 7.63921 | 2188 ft | 139 kts | 198° |
| 2026-04-25 15:45 | 51.64186 | 7.63545 | 2154 ft | 142 kts | 197° |
| 2026-04-25 15:45 | 51.63210 | 7.63231 | 2135 ft | 142 kts | 194° |
| 2026-04-25 15:45 | 51.62242 | 7.62990 | 2193 ft | 140 kts | 194° |
| 2026-04-25 15:45 | 51.61917 | 7.62914 | 2196 ft | 141 kts | 192° |
| 2026-04-25 15:46 | 51.60255 | 7.62797 | 2147 ft | 144 kts | 183° |
| 2026-04-25 15:46 | 51.59256 | 7.62885 | 2119 ft | 146 kts | 180° |
| 2026-04-25 15:46 | 51.58252 | 7.63154 | 2035 ft | 145 kts | 170° |
| 2026-04-25 15:46 | 51.57314 | 7.63646 | 1898 ft | 142 kts | 161° |
| 2026-04-25 15:47 | 51.56487 | 7.64326 | 1927 ft | 126 kts | 156° |
| 2026-04-25 15:47 | 51.55723 | 7.64885 | 1800 ft | 118 kts | 160° |
| 2026-04-25 15:47 | 51.54960 | 7.65400 | 1612 ft | 116 kts | 165° |
| 2026-04-25 15:47 | 51.54230 | 7.65689 | 1430 ft | 104 kts | 175° |
| 2026-04-25 15:48 | 51.53541 | 7.65620 | 1191 ft | 97 kts | 207° |
| 2026-04-25 15:48 | 51.53069 | 7.64904 | 947 ft | 91 kts | 245° |
| 2026-04-25 15:48 | 51.52831 | 7.64061 | 732 ft | 78 kts | 245° |
| 2026-04-25 15:48 | 51.52581 | 7.63366 | 580 ft | 66 kts | 245° |
| 2026-04-25 15:49 | 51.52374 | 7.62764 | 465 ft | 61 kts | 243° |
| 2026-04-25 15:49 | 51.52179 | 7.62208 | 409 ft | 49 kts | 243° |
| 2026-04-25 15:49 | 51.52041 | 7.61810 | 407 ft | 34 kts | 240° |
| 2026-04-25 15:49 | 51.51935 | 7.61511 | 409 ft | 31 kts | 239° |
| 2026-04-25 15:50 | 51.51858 | 7.61302 | 414 ft | 32 kts | 241° |
| 2026-04-25 15:50 | 51.51697 | 7.60829 | 416 ft | 36 kts | 240° |
| 2026-04-25 15:50 | 51.51615 | 7.60625 | 415 ft | 8 kts | 218° |
| 2026-04-25 15:50 | 51.51565 | 7.60616 | 415 ft | 10 kts | 158° |
| 2026-04-25 15:51 | 51.51529 | 7.60664 | 415 ft | 0 kts | 106° |
| 2026-04-25 15:52 | 51.51528 | 7.60667 | 415 ft | 2 kts | 104° |
| 2026-04-25 15:52 | 51.51531 | 7.60734 | 417 ft | 10 kts | 78° |
| 2026-04-25 15:52 | 51.51551 | 7.60849 | 420 ft | 10 kts | 73° |
| 2026-04-25 15:52 | 51.51571 | 7.60961 | 417 ft | 9 kts | 81° |
| 2026-04-25 15:53 | 51.51571 | 7.61032 | 423 ft | 5 kts | 113° |
| 2026-04-25 15:53 | 51.51548 | 7.61057 | 426 ft | 5 kts | 165° |
| 2026-04-25 15:53 | 51.51514 | 7.61054 | 428 ft | 6 kts | 207° |
| 2026-04-25 15:53 | 51.51485 | 7.60983 | 429 ft | 10 kts | 241° |
| 2026-04-25 15:54 | 51.51445 | 7.60874 | 428 ft | 12 kts | 238° |
| 2026-04-25 15:54 | 51.51403 | 7.60753 | 426 ft | 11 kts | 241° |
| 2026-04-25 15:54 | 51.51365 | 7.60646 | 438 ft | 11 kts | 243° |
| 2026-04-25 15:54 | 51.51324 | 7.60530 | 438 ft | 13 kts | 240° |
| 2026-04-25 15:55 | 51.51283 | 7.60415 | 438 ft | 11 kts | 239° |
| 2026-04-25 15:55 | 51.51244 | 7.60302 | 441 ft | 12 kts | 243° |
| 2026-04-25 15:55 | 51.51210 | 7.60202 | 446 ft | 8 kts | 239° |
| 2026-04-25 15:55 | 51.51192 | 7.60164 | 449 ft | 2 kts | 211° |
| 2026-04-25 15:56 | 51.51172 | 7.60159 | 452 ft | 4 kts | 165° |
| 2026-04-25 15:56 | 51.51151 | 7.60179 | 455 ft | 4 kts | 116° |
| 2026-04-25 15:56 | 51.51171 | 7.60249 | 454 ft | 9 kts | 49° |
| 2026-04-25 15:56 | 51.51209 | 7.60334 | 451 ft | 8 kts | 59° |
| 2026-04-25 15:57 | 51.51227 | 7.60388 | 451 ft | 3 kts | 70° |
| 2026-04-25 15:57 | 51.51228 | 7.60414 | 453 ft | 2 kts | 107° |
| 2026-04-25 15:57 | 51.51222 | 7.60448 | 456 ft | 2 kts | 106° |
| 2026-04-25 15:57 | 51.51219 | 7.60461 | 457 ft | 0 kts | 106° |